Time,TemperatureF,DewpointF,PressureIn,WindDirection,WindDirectionDegrees,WindSpeedMPH,WindSpeedGustMPH,Humidity,HourlyPrecipIn,Conditions,Clouds,dailyrainin,SoftwareType,DateUTC
2013-08-25 00:06:00,68.5,68.2,30.14,SSE,157,0.0,-999.0,99,-99.99,,,0.00,Acu-Link.com,2013-08-25 05:06:00,
2013-08-25 00:21:00,68.9,68.6,30.14,SSE,157,0.0,-999.0,99,-99.99,,,0.00,Acu-Link.com,2013-08-25 05:21:00,
2013-08-25 00:36:00,68.0,67.7,30.14,NE,45,0.0,-999.0,99,-99.99,,,0.00,Acu-Link.com,2013-08-25 05:36:00,
2013-08-25 00:51:00,67.8,67.5,30.14,SE,135,0.0,-999.0,99,-99.99,,,0.00,Acu-Link.com,2013-08-25 05:51:00,
2013-08-25 01:06:00,67.5,67.2,30.14,NE,45,0.0,-999.0,99,-99.99,,,0.00,Acu-Link.com,2013-08-25 06:06:00,
2013-08-25 01:21:00,67.1,66.8,30.14,SSE,157,0.0,-999.0,99,-99.99,,,0.00,Acu-Link.com,2013-08-25 06:21:00,
2013-08-25 01:36:00,66.7,66.4,30.14,SSE,157,0.0,-999.0,99,-99.99,,,0.00,Acu-Link.com,2013-08-25 06:36:00,
2013-08-25 01:51:00,67.1,66.8,30.15,SSE,157,0.0,-999.0,99,-99.99,,,0.00,Acu-Link.com,2013-08-25 06:51:00,
2013-08-25 02:06:00,66.7,66.4,30.14,SSE,157,0.0,-999.0,99,-99.99,,,0.00,Acu-Link.com,2013-08-25 07:06:00,
2013-08-25 02:22:00,66.6,66.3,30.14,South,180,0.0,-999.0,99,-99.99,,,0.00,Acu-Link.com,2013-08-25 07:22:00,
2013-08-25 02:37:00,66.0,65.7,30.14,South,180,0.0,-999.0,99,-99.99,,,0.00,Acu-Link.com,2013-08-25 07:37:00,
2013-08-25 02:52:00,65.8,65.5,30.15,South,180,0.0,-999.0,99,-99.99,,,0.00,Acu-Link.com,2013-08-25 07:52:00,
2013-08-25 03:08:00,65.7,65.4,30.15,South,180,0.0,-999.0,99,-99.99,,,0.00,Acu-Link.com,2013-08-25 08:08:00,
2013-08-25 03:23:00,65.7,65.4,30.15,South,180,0.0,-999.0,99,-99.99,,,0.00,Acu-Link.com,2013-08-25 08:23:00,
2013-08-25 03:39:00,65.5,65.2,30.15,NE,45,0.0,-999.0,99,-99.99,,,0.00,Acu-Link.com,2013-08-25 08:39:00,
2013-08-25 03:54:00,65.1,64.8,30.15,SE,135,0.0,-999.0,99,-99.99,,,0.00,Acu-Link.com,2013-08-25 08:54:00,
2013-08-25 04:09:00,64.9,64.6,30.16,SE,135,0.0,-999.0,99,-99.99,,,0.00,Acu-Link.com,2013-08-25 09:09:00,
2013-08-25 04:24:00,65.1,64.8,30.17,SSE,157,0.0,-999.0,99,-99.99,,,0.00,Acu-Link.com,2013-08-25 09:24:00,
2013-08-25 04:39:00,64.8,64.5,30.18,SSE,157,0.0,-999.0,99,-99.99,,,0.00,Acu-Link.com,2013-08-25 09:39:00,
2013-08-25 04:54:00,64.4,64.1,30.17,ESE,112,0.0,-999.0,99,-99.99,,,0.00,Acu-Link.com,2013-08-25 09:54:00,
2013-08-25 05:10:00,64.2,63.9,30.18,SE,135,0.0,-999.0,99,-99.99,,,0.00,Acu-Link.com,2013-08-25 10:10:00,
2013-08-25 05:25:00,64.2,63.9,30.18,SSE,157,0.0,-999.0,99,-99.99,,,0.00,Acu-Link.com,2013-08-25 10:25:00,
2013-08-25 05:40:00,63.5,63.2,30.18,SSE,157,0.0,-999.0,99,-99.99,,,0.00,Acu-Link.com,2013-08-25 10:40:00,
2013-08-25 05:55:00,63.7,-38.6,30.18,SSE,157,0.0,-999.0,1,-99.99,,,0.00,Acu-Link.com,2013-08-25 10:55:00,
2013-08-25 06:10:00,63.3,-13.2,30.19,SSE,157,0.0,-999.0,4,-99.99,,,0.00,Acu-Link.com,2013-08-25 11:10:00,
2013-08-25 06:25:00,63.7,10.2,30.20,SSE,157,0.0,-999.0,12,-99.99,,,0.00,Acu-Link.com,2013-08-25 11:25:00,
2013-08-25 06:40:00,63.5,20.5,30.20,SSE,157,0.0,-999.0,19,-99.99,,,0.00,Acu-Link.com,2013-08-25 11:40:00,
2013-08-25 06:55:00,63.5,28.0,30.20,SE,135,0.0,-999.0,26,-99.99,,,0.00,Acu-Link.com,2013-08-25 11:55:00,
2013-08-25 07:10:00,64.4,64.1,30.21,ESE,112,0.0,-999.0,99,-99.99,,,0.00,Acu-Link.com,2013-08-25 12:10:00,
2013-08-25 07:26:00,65.3,65.0,30.21,SE,135,0.0,-999.0,99,-99.99,,,0.00,Acu-Link.com,2013-08-25 12:26:00,
2013-08-25 07:41:00,67.8,52.5,30.21,ESE,112,0.0,-999.0,58,-99.99,,,0.00,Acu-Link.com,2013-08-25 12:41:00,
2013-08-25 07:56:00,72.1,71.2,30.21,ESE,112,0.0,-999.0,97,-99.99,,,0.00,Acu-Link.com,2013-08-25 12:56:00,
2013-08-25 08:11:00,76.5,63.4,30.21,ESE,112,0.0,-999.0,64,-99.99,,,0.00,Acu-Link.com,2013-08-25 13:11:00,
2013-08-25 08:26:00,79.9,79.3,30.21,ENE,67,1.7,-999.0,98,-99.99,,,0.00,Acu-Link.com,2013-08-25 13:26:00,
2013-08-25 08:41:00,82.9,82.6,30.21,ESE,112,2.7,-999.0,99,-99.99,,,0.00,Acu-Link.com,2013-08-25 13:41:00,
2013-08-25 08:56:00,77.9,77.6,30.21,ESE,112,2.7,-999.0,99,-99.99,,,0.00,Acu-Link.com,2013-08-25 13:56:00,
2013-08-25 09:11:00,79.7,76.2,30.21,South,180,1.7,-999.0,89,-99.99,,,0.00,Acu-Link.com,2013-08-25 14:11:00,
2013-08-25 09:26:00,80.8,76.6,30.21,South,180,0.0,-999.0,87,-99.99,,,0.00,Acu-Link.com,2013-08-25 14:26:00,
2013-08-25 09:42:00,82.2,77.9,30.21,East,90,3.2,-999.0,87,-99.99,,,0.00,Acu-Link.com,2013-08-25 14:42:00,
2013-08-25 09:57:00,83.1,78.5,30.21,SSW,202,1.7,-999.0,86,-99.99,,,0.00,Acu-Link.com,2013-08-25 14:57:00,
2013-08-25 10:12:00,84.7,79.7,30.21,ENE,67,1.7,-999.0,85,-99.99,,,0.00,Acu-Link.com,2013-08-25 15:12:00,
2013-08-25 10:27:00,85.5,80.1,30.21,SW,225,3.7,-999.0,84,-99.99,,,0.00,Acu-Link.com,2013-08-25 15:27:00,
2013-08-25 10:42:00,85.3,79.2,30.21,West,270,3.2,-999.0,82,-99.99,,,0.00,Acu-Link.com,2013-08-25 15:42:00,
2013-08-25 10:57:00,87.8,80.8,30.21,ESE,112,2.7,-999.0,80,-99.99,,,0.00,Acu-Link.com,2013-08-25 15:57:00,
2013-08-25 11:12:00,88.5,80.7,30.20,SSE,157,2.2,-999.0,78,-99.99,,,0.00,Acu-Link.com,2013-08-25 16:12:00,
2013-08-25 11:27:00,88.7,80.1,30.19,SSW,202,0.0,-999.0,76,-99.99,,,0.00,Acu-Link.com,2013-08-25 16:27:00,
2013-08-25 11:42:00,90.5,80.6,30.19,ESE,112,3.7,-999.0,73,-99.99,,,0.00,Acu-Link.com,2013-08-25 16:42:00,
2013-08-25 11:57:00,88.9,80.3,30.18,SSW,202,2.7,-999.0,76,-99.99,,,0.00,Acu-Link.com,2013-08-25 16:57:00,
2013-08-25 12:13:00,89.2,78.5,30.18,SW,225,2.7,-999.0,71,-99.99,,,0.00,Acu-Link.com,2013-08-25 17:13:00,
2013-08-25 12:28:00,91.4,79.8,30.18,ESE,112,3.7,-999.0,69,-99.99,,,0.00,Acu-Link.com,2013-08-25 17:28:00,
2013-08-25 12:43:00,91.9,77.9,30.16,WNW,292,2.7,-999.0,64,-99.99,,,0.00,Acu-Link.com,2013-08-25 17:43:00,
2013-08-25 12:58:00,91.2,77.8,30.16,SSW,202,3.2,-999.0,65,-99.99,,,0.00,Acu-Link.com,2013-08-25 17:58:00,
2013-08-25 13:13:00,93.9,78.4,30.16,ESE,112,2.2,-999.0,61,-99.99,,,0.00,Acu-Link.com,2013-08-25 18:13:00,
2013-08-25 13:28:00,93.4,78.9,30.16,South,180,1.7,-999.0,63,-99.99,,,0.00,Acu-Link.com,2013-08-25 18:28:00,
2013-08-25 13:43:00,93.6,79.1,30.15,SE,135,1.7,-999.0,63,-99.99,,,0.00,Acu-Link.com,2013-08-25 18:43:00,
2013-08-25 13:58:00,93.4,77.4,30.15,SW,225,4.7,-999.0,60,-99.99,,,0.00,Acu-Link.com,2013-08-25 18:58:00,
2013-08-25 14:13:00,94.3,78.2,30.14,SW,225,1.7,-999.0,60,-99.99,,,0.00,Acu-Link.com,2013-08-25 19:13:00,
2013-08-25 14:29:00,93.9,77.9,30.13,SSE,157,3.7,-999.0,60,-99.99,,,0.00,Acu-Link.com,2013-08-25 19:29:00,
2013-08-25 14:44:00,90.3,75.5,30.13,SW,225,3.7,-999.0,62,-99.99,,,0.00,Acu-Link.com,2013-08-25 19:44:00,
2013-08-25 14:59:00,90.3,77.4,30.13,SSW,202,2.7,-999.0,66,-99.99,,,0.00,Acu-Link.com,2013-08-25 19:59:00,
2013-08-25 15:14:00,92.8,74.8,30.13,SSW,202,1.1,-999.0,56,-99.99,,,0.00,Acu-Link.com,2013-08-25 20:14:00,
2013-08-25 15:29:00,92.5,75.0,30.12,SSW,202,2.2,-999.0,57,-99.99,,,0.00,Acu-Link.com,2013-08-25 20:29:00,
2013-08-25 15:44:00,92.7,75.7,30.11,WSW,247,0.0,-999.0,58,-99.99,,,0.00,Acu-Link.com,2013-08-25 20:44:00,
2013-08-25 15:59:00,93.6,75.5,30.10,SSE,157,2.2,-999.0,56,-99.99,,,0.00,Acu-Link.com,2013-08-25 20:59:00,
2013-08-25 16:14:00,93.6,75.0,30.11,ENE,67,1.7,-999.0,55,-99.99,,,0.00,Acu-Link.com,2013-08-25 21:14:00,
2013-08-25 16:29:00,92.7,74.7,30.11,WSW,247,1.1,-999.0,56,-99.99,,,0.00,Acu-Link.com,2013-08-25 21:29:00,
2013-08-25 16:45:00,93.2,74.6,30.10,South,180,1.7,-999.0,55,-99.99,,,0.00,Acu-Link.com,2013-08-25 21:45:00,
2013-08-25 17:00:00,91.9,74.4,30.11,SSE,157,2.2,-999.0,57,-99.99,,,0.00,Acu-Link.com,2013-08-25 22:00:00,
2013-08-25 17:15:00,91.9,74.4,30.12,South,180,2.2,-999.0,57,-99.99,,,0.00,Acu-Link.com,2013-08-25 22:15:00,
2013-08-25 17:30:00,94.5,74.7,30.11,SSW,202,0.0,-999.0,53,-99.99,,,0.00,Acu-Link.com,2013-08-25 22:30:00,
2013-08-25 17:45:00,92.1,75.7,30.11,SSW,202,1.1,-999.0,59,-99.99,,,0.00,Acu-Link.com,2013-08-25 22:45:00,
2013-08-25 18:00:00,90.9,76.0,30.11,SSE,157,0.0,-999.0,62,-99.99,,,0.00,Acu-Link.com,2013-08-25 23:00:00,
2013-08-25 18:15:00,89.4,77.0,30.12,SSE,157,0.0,-999.0,67,-99.99,,,0.00,Acu-Link.com,2013-08-25 23:15:00,
2013-08-25 18:30:00,88.3,76.4,30.12,SSE,157,0.0,-999.0,68,-99.99,,,0.00,Acu-Link.com,2013-08-25 23:30:00,
2013-08-25 18:45:00,87.3,76.7,30.12,SSE,157,0.0,-999.0,71,-99.99,,,0.00,Acu-Link.com,2013-08-25 23:45:00,
2013-08-25 19:01:00,86.7,77.4,30.12,SSE,157,0.0,-999.0,74,-99.99,,,0.00,Acu-Link.com,2013-08-26 00:01:00,
2013-08-25 19:16:00,86.0,77.9,30.12,SSE,157,0.0,-999.0,77,-99.99,,,0.00,Acu-Link.com,2013-08-26 00:16:00,
2013-08-25 19:31:00,84.4,78.3,30.12,ESE,112,0.0,-999.0,82,-99.99,,,0.00,Acu-Link.com,2013-08-26 00:31:00,
2013-08-25 19:46:00,83.5,78.5,30.13,SSW,202,0.0,-999.0,85,-99.99,,,0.00,Acu-Link.com,2013-08-26 00:46:00,
2013-08-25 20:01:00,82.2,79.0,30.12,SSW,202,0.0,-999.0,90,-99.99,,,0.00,Acu-Link.com,2013-08-26 01:01:00,
2013-08-25 20:16:00,81.3,79.4,30.13,SE,135,0.0,-999.0,94,-99.99,,,0.00,Acu-Link.com,2013-08-26 01:16:00,
2013-08-25 20:31:00,80.6,79.7,30.13,SSE,157,0.0,-999.0,97,-99.99,,,0.00,Acu-Link.com,2013-08-26 01:31:00,
2013-08-25 20:46:00,80.2,79.9,30.14,SE,135,0.0,-999.0,99,-99.99,,,0.00,Acu-Link.com,2013-08-26 01:46:00,
2013-08-25 21:01:00,79.5,79.2,30.14,South,180,0.0,-999.0,99,-99.99,,,0.00,Acu-Link.com,2013-08-26 02:01:00,
2013-08-25 21:17:00,79.3,79.0,30.14,SE,135,0.0,-999.0,99,-99.99,,,0.00,Acu-Link.com,2013-08-26 02:17:00,
2013-08-25 21:32:00,78.8,78.5,30.15,ESE,112,0.0,-999.0,99,-99.99,,,0.00,Acu-Link.com,2013-08-26 02:32:00,
2013-08-25 21:47:00,78.6,78.3,30.16,SSE,157,0.0,-999.0,99,-99.99,,,0.00,Acu-Link.com,2013-08-26 02:47:00,
2013-08-25 22:02:00,78.3,78.0,30.16,SE,135,0.0,-999.0,99,-99.99,,,0.00,Acu-Link.com,2013-08-26 03:02:00,
2013-08-25 22:17:00,77.7,77.4,30.17,ESE,112,0.0,-999.0,99,-99.99,,,0.00,Acu-Link.com,2013-08-26 03:17:00,
2013-08-25 22:32:00,77.5,77.2,30.16,SE,135,0.0,-999.0,99,-99.99,,,0.00,Acu-Link.com,2013-08-26 03:32:00,
2013-08-25 22:47:00,77.2,76.9,30.16,South,180,0.0,-999.0,99,-99.99,,,0.00,Acu-Link.com,2013-08-26 03:47:00,
2013-08-25 23:02:00,76.6,76.3,30.16,South,180,0.0,-999.0,99,-99.99,,,0.00,Acu-Link.com,2013-08-26 04:02:00,
2013-08-25 23:17:00,76.1,75.8,30.17,South,180,0.0,-999.0,99,-99.99,,,0.00,Acu-Link.com,2013-08-26 04:17:00,
2013-08-25 23:32:00,75.7,75.4,30.16,SW,225,0.0,-999.0,99,-99.99,,,0.00,Acu-Link.com,2013-08-26 04:32:00,
2013-08-25 23:48:00,75.6,75.3,30.16,East,90,0.0,-999.0,99,-99.99,,,0.00,Acu-Link.com,2013-08-26 04:48:00,